sensor_id;sensor_type;location;lat;lon;timestamp;P1;durP1;ratioP1;P2;durP2;ratioP2
23346;SDS011;36852;45.466;11.066;2023-07-31T00:01:38;4.92;;;3.60;;
23346;SDS011;36852;45.466;11.066;2023-07-31T00:04:06;5.28;;;3.75;;
23346;SDS011;36852;45.466;11.066;2023-07-31T00:06:34;3.80;;;3.40;;
23346;SDS011;36852;45.466;11.066;2023-07-31T00:09:03;5.47;;;3.62;;
23346;SDS011;36852;45.466;11.066;2023-07-31T00:11:31;5.45;;;3.42;;
23346;SDS011;36852;45.466;11.066;2023-07-31T00:13:59;4.78;;;3.62;;
23346;SDS011;36852;45.466;11.066;2023-07-31T00:16:26;3.65;;;3.35;;
23346;SDS011;36852;45.466;11.066;2023-07-31T00:18:54;5.08;;;3.30;;
23346;SDS011;36852;45.466;11.066;2023-07-31T00:21:22;4.15;;;3.77;;
23346;SDS011;36852;45.466;11.066;2023-07-31T00:23:50;4.53;;;3.42;;
23346;SDS011;36852;45.466;11.066;2023-07-31T00:26:18;4.70;;;3.50;;
23346;SDS011;36852;45.466;11.066;2023-07-31T00:28:45;4.47;;;4.05;;
23346;SDS011;36852;45.466;11.066;2023-07-31T00:31:13;3.85;;;3.45;;
23346;SDS011;36852;45.466;11.066;2023-07-31T00:33:41;6.42;;;3.98;;
23346;SDS011;36852;45.466;11.066;2023-07-31T00:36:09;4.10;;;3.70;;
23346;SDS011;36852;45.466;11.066;2023-07-31T00:38:37;6.12;;;3.85;;
23346;SDS011;36852;45.466;11.066;2023-07-31T00:41:05;6.78;;;3.80;;
23346;SDS011;36852;45.466;11.066;2023-07-31T00:43:34;5.22;;;3.60;;
23346;SDS011;36852;45.466;11.066;2023-07-31T00:46:02;3.67;;;3.33;;
23346;SDS011;36852;45.466;11.066;2023-07-31T00:48:33;4.75;;;3.60;;
23346;SDS011;36852;45.466;11.066;2023-07-31T00:51:02;3.52;;;3.22;;
23346;SDS011;36852;45.466;11.066;2023-07-31T00:53:31;4.28;;;3.60;;
23346;SDS011;36852;45.466;11.066;2023-07-31T00:56:03;3.75;;;3.42;;
23346;SDS011;36852;45.466;11.066;2023-07-31T00:58:33;4.75;;;3.62;;
23346;SDS011;36852;45.466;11.066;2023-07-31T01:01:00;6.70;;;3.55;;
23346;SDS011;36852;45.466;11.066;2023-07-31T01:03:28;4.10;;;3.40;;
23346;SDS011;36852;45.466;11.066;2023-07-31T01:06:15;3.92;;;3.60;;
23346;SDS011;36852;45.466;11.066;2023-07-31T01:08:57;3.72;;;3.42;;
23346;SDS011;36852;45.466;11.066;2023-07-31T01:11:33;3.95;;;3.58;;
23346;SDS011;36852;45.466;11.066;2023-07-31T01:14:03;5.10;;;3.40;;
23346;SDS011;36852;45.466;11.066;2023-07-31T01:16:31;6.90;;;3.50;;
23346;SDS011;36852;45.466;11.066;2023-07-31T01:18:59;4.00;;;3.70;;
23346;SDS011;36852;45.466;11.066;2023-07-31T01:26:47;4.03;;;3.20;;
23346;SDS011;36852;45.466;11.066;2023-07-31T01:29:23;4.67;;;4.08;;
23346;SDS011;36852;45.466;11.066;2023-07-31T01:31:53;7.15;;;3.60;;
23346;SDS011;36852;45.466;11.066;2023-07-31T01:34:29;5.70;;;3.80;;
23346;SDS011;36852;45.466;11.066;2023-07-31T01:36:58;4.65;;;3.80;;
23346;SDS011;36852;45.466;11.066;2023-07-31T01:39:26;4.72;;;3.50;;
23346;SDS011;36852;45.466;11.066;2023-07-31T01:41:57;5.97;;;3.67;;
23346;SDS011;36852;45.466;11.066;2023-07-31T01:44:25;3.83;;;3.52;;
23346;SDS011;36852;45.466;11.066;2023-07-31T01:46:53;3.95;;;3.65;;
23346;SDS011;36852;45.466;11.066;2023-07-31T01:49:22;8.73;;;3.83;;
23346;SDS011;36852;45.466;11.066;2023-07-31T01:51:53;5.22;;;3.75;;
23346;SDS011;36852;45.466;11.066;2023-07-31T01:54:21;5.22;;;3.60;;
23346;SDS011;36852;45.466;11.066;2023-07-31T01:56:49;3.80;;;3.50;;
23346;SDS011;36852;45.466;11.066;2023-07-31T01:59:17;4.47;;;3.60;;
23346;SDS011;36852;45.466;11.066;2023-07-31T02:01:44;4.03;;;3.50;;
23346;SDS011;36852;45.466;11.066;2023-07-31T02:04:12;4.22;;;3.83;;
23346;SDS011;36852;45.466;11.066;2023-07-31T02:06:40;4.58;;;3.87;;
23346;SDS011;36852;45.466;11.066;2023-07-31T02:09:08;3.65;;;3.33;;
23346;SDS011;36852;45.466;11.066;2023-07-31T02:11:36;6.80;;;4.12;;
23346;SDS011;36852;45.466;11.066;2023-07-31T02:14:04;5.83;;;3.58;;
23346;SDS011;36852;45.466;11.066;2023-07-31T02:16:32;4.00;;;3.50;;
23346;SDS011;36852;45.466;11.066;2023-07-31T02:19:05;4.30;;;4.00;;
23346;SDS011;36852;45.466;11.066;2023-07-31T02:21:33;4.80;;;4.30;;
23346;SDS011;36852;45.466;11.066;2023-07-31T02:24:04;5.83;;;3.80;;
23346;SDS011;36852;45.466;11.066;2023-07-31T02:26:32;5.42;;;3.87;;
23346;SDS011;36852;45.466;11.066;2023-07-31T02:29:00;5.70;;;4.28;;
23346;SDS011;36852;45.466;11.066;2023-07-31T02:31:28;5.78;;;4.00;;
23346;SDS011;36852;45.466;11.066;2023-07-31T02:33:56;5.15;;;3.98;;
23346;SDS011;36852;45.466;11.066;2023-07-31T02:36:25;4.45;;;4.00;;
23346;SDS011;36852;45.466;11.066;2023-07-31T02:38:55;4.30;;;3.90;;
23346;SDS011;36852;45.466;11.066;2023-07-31T02:41:23;4.37;;;3.98;;
23346;SDS011;36852;45.466;11.066;2023-07-31T02:43:50;6.70;;;4.53;;
23346;SDS011;36852;45.466;11.066;2023-07-31T02:46:19;5.30;;;4.17;;
23346;SDS011;36852;45.466;11.066;2023-07-31T02:48:50;4.53;;;4.08;;
23346;SDS011;36852;45.466;11.066;2023-07-31T02:51:19;4.58;;;3.85;;
23346;SDS011;36852;45.466;11.066;2023-07-31T02:53:49;6.95;;;4.58;;
23346;SDS011;36852;45.466;11.066;2023-07-31T02:56:17;5.65;;;4.08;;
23346;SDS011;36852;45.466;11.066;2023-07-31T02:58:45;9.03;;;4.40;;
23346;SDS011;36852;45.466;11.066;2023-07-31T03:01:13;5.97;;;4.33;;
23346;SDS011;36852;45.466;11.066;2023-07-31T03:03:42;6.92;;;4.60;;
23346;SDS011;36852;45.466;11.066;2023-07-31T03:06:11;6.10;;;4.40;;
23346;SDS011;36852;45.466;11.066;2023-07-31T03:08:39;4.87;;;4.47;;
23346;SDS011;36852;45.466;11.066;2023-07-31T03:11:07;4.55;;;4.03;;
23346;SDS011;36852;45.466;11.066;2023-07-31T03:13:35;5.03;;;4.60;;
23346;SDS011;36852;45.466;11.066;2023-07-31T03:16:03;7.33;;;4.22;;
23346;SDS011;36852;45.466;11.066;2023-07-31T03:18:34;4.30;;;3.90;;
23346;SDS011;36852;45.466;11.066;2023-07-31T03:21:01;4.70;;;3.87;;
23346;SDS011;36852;45.466;11.066;2023-07-31T03:23:29;6.92;;;4.37;;
23346;SDS011;36852;45.466;11.066;2023-07-31T03:25:58;5.25;;;4.30;;
23346;SDS011;36852;45.466;11.066;2023-07-31T03:28:27;4.85;;;4.35;;
23346;SDS011;36852;45.466;11.066;2023-07-31T03:30:55;6.42;;;4.37;;
23346;SDS011;36852;45.466;11.066;2023-07-31T03:33:23;5.08;;;4.20;;
23346;SDS011;36852;45.466;11.066;2023-07-31T03:35:51;4.80;;;4.10;;
23346;SDS011;36852;45.466;11.066;2023-07-31T03:38:23;4.65;;;4.12;;
23346;SDS011;36852;45.466;11.066;2023-07-31T03:40:52;4.65;;;4.25;;
23346;SDS011;36852;45.466;11.066;2023-07-31T03:43:21;4.83;;;4.05;;
23346;SDS011;36852;45.466;11.066;2023-07-31T03:45:48;5.75;;;4.40;;
23346;SDS011;36852;45.466;11.066;2023-07-31T03:48:20;7.45;;;4.50;;
23346;SDS011;36852;45.466;11.066;2023-07-31T03:50:47;4.85;;;4.20;;
23346;SDS011;36852;45.466;11.066;2023-07-31T03:53:16;5.47;;;4.42;;
23346;SDS011;36852;45.466;11.066;2023-07-31T03:55:47;7.70;;;3.90;;
23346;SDS011;36852;45.466;11.066;2023-07-31T03:58:15;4.55;;;4.12;;
23346;SDS011;36852;45.466;11.066;2023-07-31T04:00:45;4.58;;;4.12;;
23346;SDS011;36852;45.466;11.066;2023-07-31T04:03:13;7.22;;;4.00;;
23346;SDS011;36852;45.466;11.066;2023-07-31T04:05:41;9.48;;;4.92;;
23346;SDS011;36852;45.466;11.066;2023-07-31T04:08:09;10.95;;;4.17;;
23346;SDS011;36852;45.466;11.066;2023-07-31T04:10:37;8.83;;;4.90;;
23346;SDS011;36852;45.466;11.066;2023-07-31T04:13:09;7.87;;;4.95;;
23346;SDS011;36852;45.466;11.066;2023-07-31T04:15:37;6.95;;;4.50;;
23346;SDS011;36852;45.466;11.066;2023-07-31T04:18:05;5.55;;;4.45;;
23346;SDS011;36852;45.466;11.066;2023-07-31T04:20:35;5.25;;;4.00;;
23346;SDS011;36852;45.466;11.066;2023-07-31T04:23:02;7.87;;;4.12;;
23346;SDS011;36852;45.466;11.066;2023-07-31T04:25:30;5.72;;;3.95;;
23346;SDS011;36852;45.466;11.066;2023-07-31T04:27:58;4.72;;;4.22;;
23346;SDS011;36852;45.466;11.066;2023-07-31T04:30:30;8.33;;;4.42;;
23346;SDS011;36852;45.466;11.066;2023-07-31T04:32:58;4.67;;;4.28;;
23346;SDS011;36852;45.466;11.066;2023-07-31T04:35:33;4.30;;;3.80;;
23346;SDS011;36852;45.466;11.066;2023-07-31T04:38:02;6.97;;;3.92;;
23346;SDS011;36852;45.466;11.066;2023-07-31T04:40:29;5.53;;;4.17;;
23346;SDS011;36852;45.466;11.066;2023-07-31T04:42:58;5.17;;;3.90;;
23346;SDS011;36852;45.466;11.066;2023-07-31T04:45:30;4.40;;;3.90;;
23346;SDS011;36852;45.466;11.066;2023-07-31T04:47:59;6.45;;;4.12;;
23346;SDS011;36852;45.466;11.066;2023-07-31T04:50:27;6.55;;;4.40;;
23346;SDS011;36852;45.466;11.066;2023-07-31T04:52:57;5.03;;;3.95;;
23346;SDS011;36852;45.466;11.066;2023-07-31T04:55:25;7.62;;;4.30;;
23346;SDS011;36852;45.466;11.066;2023-07-31T04:57:54;6.67;;;4.12;;
23346;SDS011;36852;45.466;11.066;2023-07-31T05:00:22;4.30;;;3.83;;
23346;SDS011;36852;45.466;11.066;2023-07-31T05:02:49;5.35;;;4.10;;
23346;SDS011;36852;45.466;11.066;2023-07-31T05:05:21;4.30;;;3.85;;
23346;SDS011;36852;45.466;11.066;2023-07-31T05:07:49;7.58;;;4.60;;
23346;SDS011;36852;45.466;11.066;2023-07-31T05:10:17;8.00;;;4.05;;
23346;SDS011;36852;45.466;11.066;2023-07-31T05:12:45;7.62;;;4.25;;
23346;SDS011;36852;45.466;11.066;2023-07-31T05:15:13;7.42;;;4.05;;
23346;SDS011;36852;45.466;11.066;2023-07-31T05:17:42;7.45;;;4.50;;
23346;SDS011;36852;45.466;11.066;2023-07-31T05:20:14;6.42;;;4.50;;
23346;SDS011;36852;45.466;11.066;2023-07-31T05:22:44;8.00;;;4.65;;
23346;SDS011;36852;45.466;11.066;2023-07-31T05:25:12;7.55;;;4.10;;
23346;SDS011;36852;45.466;11.066;2023-07-31T05:27:41;7.22;;;4.28;;
23346;SDS011;36852;45.466;11.066;2023-07-31T05:30:09;10.08;;;4.22;;
23346;SDS011;36852;45.466;11.066;2023-07-31T05:32:37;12.93;;;5.10;;
23346;SDS011;36852;45.466;11.066;2023-07-31T05:35:05;16.95;;;5.87;;
23346;SDS011;36852;45.466;11.066;2023-07-31T05:37:34;11.08;;;5.47;;
23346;SDS011;36852;45.466;11.066;2023-07-31T05:40:03;17.67;;;5.62;;
23346;SDS011;36852;45.466;11.066;2023-07-31T05:42:32;10.45;;;6.97;;
23346;SDS011;36852;45.466;11.066;2023-07-31T05:45:00;7.62;;;4.15;;
23346;SDS011;36852;45.466;11.066;2023-07-31T05:47:28;6.70;;;4.50;;
23346;SDS011;36852;45.466;11.066;2023-07-31T05:49:56;8.35;;;4.28;;
23346;SDS011;36852;45.466;11.066;2023-07-31T05:52:24;9.45;;;5.25;;
23346;SDS011;36852;45.466;11.066;2023-07-31T05:54:53;5.03;;;4.10;;
23346;SDS011;36852;45.466;11.066;2023-07-31T05:57:21;9.05;;;4.50;;
23346;SDS011;36852;45.466;11.066;2023-07-31T05:59:49;10.80;;;3.83;;
23346;SDS011;36852;45.466;11.066;2023-07-31T06:02:17;5.35;;;3.52;;
23346;SDS011;36852;45.466;11.066;2023-07-31T06:04:45;4.78;;;3.77;;
23346;SDS011;36852;45.466;11.066;2023-07-31T06:07:23;4.97;;;3.60;;
23346;SDS011;36852;45.466;11.066;2023-07-31T06:09:51;6.17;;;3.70;;
23346;SDS011;36852;45.466;11.066;2023-07-31T06:12:19;5.10;;;4.00;;
23346;SDS011;36852;45.466;11.066;2023-07-31T06:14:47;4.72;;;3.40;;
23346;SDS011;36852;45.466;11.066;2023-07-31T06:17:15;16.85;;;12.28;;
23346;SDS011;36852;45.466;11.066;2023-07-31T06:19:43;8.33;;;6.80;;
23346;SDS011;36852;45.466;11.066;2023-07-31T06:22:11;12.40;;;8.05;;
23346;SDS011;36852;45.466;11.066;2023-07-31T06:24:41;10.63;;;5.33;;
23346;SDS011;36852;45.466;11.066;2023-07-31T06:27:09;5.62;;;5.05;;
23346;SDS011;36852;45.466;11.066;2023-07-31T06:29:37;6.70;;;4.78;;
23346;SDS011;36852;45.466;11.066;2023-07-31T06:32:05;7.00;;;4.78;;
23346;SDS011;36852;45.466;11.066;2023-07-31T06:34:33;7.25;;;4.50;;
23346;SDS011;36852;45.466;11.066;2023-07-31T06:37:02;5.50;;;4.33;;
23346;SDS011;36852;45.466;11.066;2023-07-31T06:39:31;5.45;;;4.60;;
23346;SDS011;36852;45.466;11.066;2023-07-31T06:42:01;5.83;;;4.30;;
23346;SDS011;36852;45.466;11.066;2023-07-31T06:44:29;5.20;;;4.80;;
23346;SDS011;36852;45.466;11.066;2023-07-31T06:46:57;7.45;;;5.35;;
23346;SDS011;36852;45.466;11.066;2023-07-31T06:49:28;5.95;;;5.45;;
23346;SDS011;36852;45.466;11.066;2023-07-31T06:51:56;7.25;;;5.10;;
23346;SDS011;36852;45.466;11.066;2023-07-31T06:54:23;8.95;;;6.42;;
23346;SDS011;36852;45.466;11.066;2023-07-31T06:56:52;12.90;;;6.30;;
23346;SDS011;36852;45.466;11.066;2023-07-31T06:59:20;14.55;;;6.90;;
23346;SDS011;36852;45.466;11.066;2023-07-31T07:01:47;11.55;;;7.78;;
23346;SDS011;36852;45.466;11.066;2023-07-31T07:04:15;15.40;;;7.37;;
23346;SDS011;36852;45.466;11.066;2023-07-31T07:06:43;10.55;;;7.67;;
23346;SDS011;36852;45.466;11.066;2023-07-31T07:09:12;14.80;;;7.05;;
23346;SDS011;36852;45.466;11.066;2023-07-31T07:11:40;10.95;;;7.40;;
23346;SDS011;36852;45.466;11.066;2023-07-31T07:14:08;9.08;;;7.05;;
23346;SDS011;36852;45.466;11.066;2023-07-31T07:16:36;13.13;;;7.08;;
23346;SDS011;36852;45.466;11.066;2023-07-31T07:19:05;8.13;;;6.90;;
23346;SDS011;36852;45.466;11.066;2023-07-31T07:21:34;10.38;;;7.78;;
23346;SDS011;36852;45.466;11.066;2023-07-31T07:24:02;9.73;;;7.40;;
23346;SDS011;36852;45.466;11.066;2023-07-31T07:26:30;6.80;;;5.97;;
23346;SDS011;36852;45.466;11.066;2023-07-31T07:28:58;6.40;;;5.80;;
23346;SDS011;36852;45.466;11.066;2023-07-31T07:31:28;10.25;;;6.08;;
23346;SDS011;36852;45.466;11.066;2023-07-31T07:33:56;7.53;;;4.85;;
23346;SDS011;36852;45.466;11.066;2023-07-31T07:36:24;5.53;;;5.03;;
23346;SDS011;36852;45.466;11.066;2023-07-31T07:38:52;5.90;;;4.53;;
23346;SDS011;36852;45.466;11.066;2023-07-31T07:41:20;6.42;;;4.62;;
23346;SDS011;36852;45.466;11.066;2023-07-31T07:43:48;6.45;;;5.05;;
23346;SDS011;36852;45.466;11.066;2023-07-31T07:46:16;7.42;;;4.90;;
23346;SDS011;36852;45.466;11.066;2023-07-31T07:48:44;5.83;;;4.45;;
23346;SDS011;36852;45.466;11.066;2023-07-31T07:51:15;7.30;;;4.92;;
23346;SDS011;36852;45.466;11.066;2023-07-31T07:53:43;4.70;;;3.75;;
23346;SDS011;36852;45.466;11.066;2023-07-31T07:56:12;6.03;;;3.40;;
23346;SDS011;36852;45.466;11.066;2023-07-31T07:58:40;5.70;;;3.83;;
23346;SDS011;36852;45.466;11.066;2023-07-31T08:01:08;5.95;;;3.52;;
23346;SDS011;36852;45.466;11.066;2023-07-31T08:03:36;4.20;;;3.67;;
23346;SDS011;36852;45.466;11.066;2023-07-31T08:06:04;8.08;;;2.62;;
23346;SDS011;36852;45.466;11.066;2023-07-31T08:08:32;4.47;;;2.70;;
23346;SDS011;36852;45.466;11.066;2023-07-31T08:11:00;3.25;;;2.45;;
23346;SDS011;36852;45.466;11.066;2023-07-31T08:13:28;2.67;;;2.47;;
23346;SDS011;36852;45.466;11.066;2023-07-31T08:15:56;2.40;;;2.20;;
23346;SDS011;36852;45.466;11.066;2023-07-31T08:18:25;2.92;;;2.00;;
23346;SDS011;36852;45.466;11.066;2023-07-31T08:20:53;2.47;;;1.87;;
23346;SDS011;36852;45.466;11.066;2023-07-31T08:23:21;2.25;;;2.10;;
23346;SDS011;36852;45.466;11.066;2023-07-31T08:25:50;2.42;;;2.15;;
23346;SDS011;36852;45.466;11.066;2023-07-31T08:28:17;1.92;;;1.82;;
23346;SDS011;36852;45.466;11.066;2023-07-31T08:30:45;1.70;;;1.60;;
23346;SDS011;36852;45.466;11.066;2023-07-31T08:33:13;3.45;;;2.30;;
23346;SDS011;36852;45.466;11.066;2023-07-31T08:35:41;3.45;;;1.75;;
23346;SDS011;36852;45.466;11.066;2023-07-31T08:38:09;2.00;;;1.80;;
23346;SDS011;36852;45.466;11.066;2023-07-31T08:40:37;4.05;;;1.90;;
23346;SDS011;36852;45.466;11.066;2023-07-31T08:43:05;7.17;;;2.35;;
23346;SDS011;36852;45.466;11.066;2023-07-31T08:45:35;7.30;;;1.85;;
23346;SDS011;36852;45.466;11.066;2023-07-31T08:48:05;2.25;;;1.70;;
23346;SDS011;36852;45.466;11.066;2023-07-31T08:50:33;14.35;;;3.37;;
23346;SDS011;36852;45.466;11.066;2023-07-31T08:53:02;6.50;;;1.90;;
23346;SDS011;36852;45.466;11.066;2023-07-31T08:55:32;2.83;;;1.75;;
23346;SDS011;36852;45.466;11.066;2023-07-31T08:58:00;10.00;;;3.00;;
23346;SDS011;36852;45.466;11.066;2023-07-31T09:00:31;5.03;;;2.02;;
23346;SDS011;36852;45.466;11.066;2023-07-31T09:03:01;4.55;;;1.75;;
23346;SDS011;36852;45.466;11.066;2023-07-31T09:05:32;2.20;;;1.90;;
23346;SDS011;36852;45.466;11.066;2023-07-31T09:08:04;5.33;;;2.05;;
23346;SDS011;36852;45.466;11.066;2023-07-31T09:10:32;3.15;;;1.70;;
23346;SDS011;36852;45.466;11.066;2023-07-31T09:13:00;2.42;;;1.80;;
23346;SDS011;36852;45.466;11.066;2023-07-31T09:15:30;1.72;;;1.55;;
23346;SDS011;36852;45.466;11.066;2023-07-31T09:18:00;41.42;;;4.78;;
23346;SDS011;36852;45.466;11.066;2023-07-31T09:20:28;7.22;;;2.02;;
23346;SDS011;36852;45.466;11.066;2023-07-31T09:22:58;3.22;;;1.35;;
23346;SDS011;36852;45.466;11.066;2023-07-31T09:25:34;19.00;;;2.42;;
23346;SDS011;36852;45.466;11.066;2023-07-31T09:28:05;3.45;;;1.65;;
23346;SDS011;36852;45.466;11.066;2023-07-31T09:30:45;2.83;;;1.45;;
23346;SDS011;36852;45.466;11.066;2023-07-31T09:33:18;1.37;;;1.20;;
23346;SDS011;36852;45.466;11.066;2023-07-31T09:35:48;1.55;;;1.35;;
23346;SDS011;36852;45.466;11.066;2023-07-31T09:38:16;14.35;;;2.42;;
23346;SDS011;36852;45.466;11.066;2023-07-31T09:40:44;11.90;;;2.42;;
23346;SDS011;36852;45.466;11.066;2023-07-31T09:43:21;4.92;;;2.12;;
23346;SDS011;36852;45.466;11.066;2023-07-31T09:45:54;3.33;;;1.70;;
23346;SDS011;36852;45.466;11.066;2023-07-31T09:48:22;3.00;;;2.10;;
23346;SDS011;36852;45.466;11.066;2023-07-31T09:50:52;2.35;;;1.85;;
23346;SDS011;36852;45.466;11.066;2023-07-31T09:53:27;1.95;;;1.77;;
23346;SDS011;36852;45.466;11.066;2023-07-31T09:55:58;1.98;;;1.82;;
23346;SDS011;36852;45.466;11.066;2023-07-31T09:58:27;2.72;;;2.12;;
23346;SDS011;36852;45.466;11.066;2023-07-31T10:00:59;1.70;;;1.60;;
23346;SDS011;36852;45.466;11.066;2023-07-31T10:03:29;3.70;;;1.82;;
23346;SDS011;36852;45.466;11.066;2023-07-31T10:05:59;2.90;;;1.80;;
23346;SDS011;36852;45.466;11.066;2023-07-31T10:08:28;2.85;;;1.70;;
23346;SDS011;36852;45.466;11.066;2023-07-31T10:10:59;2.58;;;1.87;;
23346;SDS011;36852;45.466;11.066;2023-07-31T10:13:28;2.80;;;1.70;;
23346;SDS011;36852;45.466;11.066;2023-07-31T10:16:01;4.25;;;2.05;;
23346;SDS011;36852;45.466;11.066;2023-07-31T10:18:29;2.25;;;1.65;;
23346;SDS011;36852;45.466;11.066;2023-07-31T10:20:58;1.80;;;1.70;;
23346;SDS011;36852;45.466;11.066;2023-07-31T10:23:29;1.60;;;1.50;;
23346;SDS011;36852;45.466;11.066;2023-07-31T10:26:00;1.52;;;1.32;;
23346;SDS011;36852;45.466;11.066;2023-07-31T10:28:29;2.87;;;1.52;;
23346;SDS011;36852;45.466;11.066;2023-07-31T10:31:01;1.80;;;1.60;;
23346;SDS011;36852;45.466;11.066;2023-07-31T10:33:30;1.82;;;1.70;;
23346;SDS011;36852;45.466;11.066;2023-07-31T10:36:11;2.58;;;1.50;;
23346;SDS011;36852;45.466;11.066;2023-07-31T10:38:50;2.60;;;1.72;;
23346;SDS011;36852;45.466;11.066;2023-07-31T10:41:19;2.70;;;1.72;;
23346;SDS011;36852;45.466;11.066;2023-07-31T10:43:50;3.83;;;1.62;;
23346;SDS011;36852;45.466;11.066;2023-07-31T10:46:21;2.12;;;1.57;;
23346;SDS011;36852;45.466;11.066;2023-07-31T10:48:57;2.83;;;1.62;;
23346;SDS011;36852;45.466;11.066;2023-07-31T10:51:34;3.30;;;1.45;;
23346;SDS011;36852;45.466;11.066;2023-07-31T10:54:12;1.62;;;1.52;;
23346;SDS011;36852;45.466;11.066;2023-07-31T10:56:45;1.70;;;1.60;;
23346;SDS011;36852;45.466;11.066;2023-07-31T10:59:15;3.02;;;2.02;;
23346;SDS011;36852;45.466;11.066;2023-07-31T11:04:26;3.20;;;1.60;;
23346;SDS011;36852;45.466;11.066;2023-07-31T11:06:55;1.50;;;1.40;;
23346;SDS011;36852;45.466;11.066;2023-07-31T11:09:29;1.98;;;1.65;;
23346;SDS011;36852;45.466;11.066;2023-07-31T11:11:59;1.82;;;1.70;;
23346;SDS011;36852;45.466;11.066;2023-07-31T11:14:27;1.67;;;1.55;;
23346;SDS011;36852;45.466;11.066;2023-07-31T11:16:55;3.25;;;1.62;;
23346;SDS011;36852;45.466;11.066;2023-07-31T11:19:24;1.90;;;1.80;;
23346;SDS011;36852;45.466;11.066;2023-07-31T11:21:52;2.80;;;1.50;;
23346;SDS011;36852;45.466;11.066;2023-07-31T11:24:21;2.20;;;1.92;;
23346;SDS011;36852;45.466;11.066;2023-07-31T11:26:51;2.02;;;1.77;;
23346;SDS011;36852;45.466;11.066;2023-07-31T11:29:20;2.42;;;2.22;;
23346;SDS011;36852;45.466;11.066;2023-07-31T11:31:48;6.65;;;1.92;;
23346;SDS011;36852;45.466;11.066;2023-07-31T11:34:16;4.62;;;3.00;;
23346;SDS011;36852;45.466;11.066;2023-07-31T11:36:54;3.08;;;2.15;;
23346;SDS011;36852;45.466;11.066;2023-07-31T11:39:22;5.28;;;2.30;;
23346;SDS011;36852;45.466;11.066;2023-07-31T11:41:51;7.20;;;3.60;;
23346;SDS011;36852;45.466;11.066;2023-07-31T11:44:19;3.12;;;2.30;;
23346;SDS011;36852;45.466;11.066;2023-07-31T11:46:49;3.72;;;2.12;;
23346;SDS011;36852;45.466;11.066;2023-07-31T11:49:17;4.97;;;1.67;;
23346;SDS011;36852;45.466;11.066;2023-07-31T11:51:45;5.72;;;1.98;;
23346;SDS011;36852;45.466;11.066;2023-07-31T11:54:13;2.92;;;1.80;;
23346;SDS011;36852;45.466;11.066;2023-07-31T11:56:41;5.08;;;1.87;;
23346;SDS011;36852;45.466;11.066;2023-07-31T11:59:11;7.15;;;2.00;;
23346;SDS011;36852;45.466;11.066;2023-07-31T12:01:40;3.65;;;2.40;;
23346;SDS011;36852;45.466;11.066;2023-07-31T12:04:08;5.08;;;1.95;;
23346;SDS011;36852;45.466;11.066;2023-07-31T12:06:37;2.90;;;2.10;;
23346;SDS011;36852;45.466;11.066;2023-07-31T12:09:06;2.90;;;1.80;;
23346;SDS011;36852;45.466;11.066;2023-07-31T12:11:43;2.77;;;2.27;;
23346;SDS011;36852;45.466;11.066;2023-07-31T12:17:00;3.37;;;2.22;;
23346;SDS011;36852;45.466;11.066;2023-07-31T12:19:30;4.75;;;1.75;;
23346;SDS011;36852;45.466;11.066;2023-07-31T12:21:59;2.10;;;1.80;;
23346;SDS011;36852;45.466;11.066;2023-07-31T12:24:29;2.67;;;1.70;;
23346;SDS011;36852;45.466;11.066;2023-07-31T12:26:58;4.55;;;2.22;;
23346;SDS011;36852;45.466;11.066;2023-07-31T12:29:33;2.85;;;2.02;;
23346;SDS011;36852;45.466;11.066;2023-07-31T12:32:24;2.83;;;1.90;;
23346;SDS011;36852;45.466;11.066;2023-07-31T12:34:51;4.47;;;1.70;;
23346;SDS011;36852;45.466;11.066;2023-07-31T12:37:18;2.02;;;1.90;;
23346;SDS011;36852;45.466;11.066;2023-07-31T12:39:49;4.42;;;2.70;;
23346;SDS011;36852;45.466;11.066;2023-07-31T12:42:17;4.15;;;1.90;;
23346;SDS011;36852;45.466;11.066;2023-07-31T12:44:45;2.95;;;2.05;;
23346;SDS011;36852;45.466;11.066;2023-07-31T12:47:15;3.40;;;1.80;;
23346;SDS011;36852;45.466;11.066;2023-07-31T12:49:42;2.40;;;1.92;;
23346;SDS011;36852;45.466;11.066;2023-07-31T12:52:10;3.15;;;1.70;;
23346;SDS011;36852;45.466;11.066;2023-07-31T12:54:41;3.17;;;1.80;;
23346;SDS011;36852;45.466;11.066;2023-07-31T12:57:09;2.20;;;1.95;;
23346;SDS011;36852;45.466;11.066;2023-07-31T12:59:38;5.95;;;1.95;;
23346;SDS011;36852;45.466;11.066;2023-07-31T13:02:06;2.15;;;1.82;;
23346;SDS011;36852;45.466;11.066;2023-07-31T13:04:34;4.12;;;1.87;;
23346;SDS011;36852;45.466;11.066;2023-07-31T13:07:02;2.45;;;2.25;;
23346;SDS011;36852;45.466;11.066;2023-07-31T13:09:33;3.37;;;2.15;;
23346;SDS011;36852;45.466;11.066;2023-07-31T13:12:02;2.77;;;1.90;;
23346;SDS011;36852;45.466;11.066;2023-07-31T13:14:31;2.42;;;2.05;;
23346;SDS011;36852;45.466;11.066;2023-07-31T13:17:00;3.05;;;2.20;;
23346;SDS011;36852;45.466;11.066;2023-07-31T13:19:28;2.52;;;2.12;;
23346;SDS011;36852;45.466;11.066;2023-07-31T13:21:56;3.05;;;1.60;;
23346;SDS011;36852;45.466;11.066;2023-07-31T13:24:24;2.35;;;1.80;;
23346;SDS011;36852;45.466;11.066;2023-07-31T13:26:52;2.47;;;2.15;;
23346;SDS011;36852;45.466;11.066;2023-07-31T13:29:22;2.27;;;2.08;;
23346;SDS011;36852;45.466;11.066;2023-07-31T13:31:52;3.67;;;1.92;;
23346;SDS011;36852;45.466;11.066;2023-07-31T13:34:20;3.05;;;2.17;;
23346;SDS011;36852;45.466;11.066;2023-07-31T13:36:48;3.05;;;1.80;;
23346;SDS011;36852;45.466;11.066;2023-07-31T13:39:16;2.00;;;1.80;;
23346;SDS011;36852;45.466;11.066;2023-07-31T13:41:47;3.30;;;2.00;;
23346;SDS011;36852;45.466;11.066;2023-07-31T13:44:15;5.15;;;1.90;;
23346;SDS011;36852;45.466;11.066;2023-07-31T13:46:43;2.10;;;1.82;;
23346;SDS011;36852;45.466;11.066;2023-07-31T13:49:15;2.87;;;2.00;;
23346;SDS011;36852;45.466;11.066;2023-07-31T13:51:43;2.12;;;1.92;;
23346;SDS011;36852;45.466;11.066;2023-07-31T13:54:12;3.25;;;2.00;;
23346;SDS011;36852;45.466;11.066;2023-07-31T13:56:42;1.90;;;1.80;;
23346;SDS011;36852;45.466;11.066;2023-07-31T13:59:12;2.95;;;1.60;;
23346;SDS011;36852;45.466;11.066;2023-07-31T14:01:42;2.80;;;2.08;;
23346;SDS011;36852;45.466;11.066;2023-07-31T14:04:10;1.92;;;1.75;;
23346;SDS011;36852;45.466;11.066;2023-07-31T14:06:40;2.98;;;1.90;;
23346;SDS011;36852;45.466;11.066;2023-07-31T14:09:09;2.20;;;2.00;;
23346;SDS011;36852;45.466;11.066;2023-07-31T14:11:37;2.20;;;1.90;;
23346;SDS011;36852;45.466;11.066;2023-07-31T14:14:06;4.33;;;2.10;;
23346;SDS011;36852;45.466;11.066;2023-07-31T14:16:36;2.20;;;1.90;;
23346;SDS011;36852;45.466;11.066;2023-07-31T14:19:06;2.05;;;1.92;;
23346;SDS011;36852;45.466;11.066;2023-07-31T14:21:38;2.45;;;2.02;;
23346;SDS011;36852;45.466;11.066;2023-07-31T14:24:06;2.30;;;2.10;;
23346;SDS011;36852;45.466;11.066;2023-07-31T14:26:34;3.05;;;2.37;;
23346;SDS011;36852;45.466;11.066;2023-07-31T14:29:03;2.95;;;1.95;;
23346;SDS011;36852;45.466;11.066;2023-07-31T14:31:31;3.02;;;1.82;;
23346;SDS011;36852;45.466;11.066;2023-07-31T14:33:59;2.10;;;2.00;;
23346;SDS011;36852;45.466;11.066;2023-07-31T14:36:27;5.90;;;1.90;;
23346;SDS011;36852;45.466;11.066;2023-07-31T14:38:55;2.62;;;2.00;;
23346;SDS011;36852;45.466;11.066;2023-07-31T14:41:23;2.25;;;2.12;;
23346;SDS011;36852;45.466;11.066;2023-07-31T14:43:51;2.22;;;1.72;;
23346;SDS011;36852;45.466;11.066;2023-07-31T14:46:20;6.40;;;2.08;;
23346;SDS011;36852;45.466;11.066;2023-07-31T14:48:48;2.62;;;1.87;;
23346;SDS011;36852;45.466;11.066;2023-07-31T14:51:17;3.67;;;2.17;;
23346;SDS011;36852;45.466;11.066;2023-07-31T14:53:45;2.77;;;1.72;;
23346;SDS011;36852;45.466;11.066;2023-07-31T14:56:14;2.60;;;1.85;;